createdAt,value
2023-01-17T09:23:52.472Z,74.60
2023-01-17T09:26:19.162Z,52.40
2023-01-17T09:28:45.963Z,52.30
2023-01-17T09:31:12.847Z,43.90
2023-01-17T09:33:42.624Z,44.10
2023-01-17T09:36:10.928Z,46.60
2023-01-17T09:43:49.857Z,41.20
2023-01-17T09:49:14.058Z,40.90
2023-01-17T09:51:42.407Z,42.00
2023-01-17T09:54:23.582Z,51.30
2023-01-17T09:57:02.951Z,49.20
2023-01-17T09:59:38.196Z,42.00
2023-01-17T10:04:56.616Z,51.30
2023-01-17T10:10:19.368Z,67.00
2023-01-17T10:12:53.749Z,57.10
2023-01-17T10:18:40.932Z,59.00
2023-01-17T10:21:12.414Z,49.00
2023-01-17T10:24:00.057Z,47.60
2023-01-17T10:26:27.183Z,50.10
2023-01-17T10:44:44.466Z,57.20
2023-01-17T10:47:11.123Z,63.00
2023-01-17T10:49:58.417Z,62.00
2023-01-17T10:53:11.775Z,59.90
2023-01-17T10:55:53.309Z,56.00
2023-01-17T10:58:20.066Z,57.00
2023-01-17T11:16:21.141Z,81.70
2023-01-17T11:21:17.492Z,73.00
2023-01-17T11:33:45.580Z,64.20
2023-01-17T11:36:19.742Z,63.00
2023-01-17T11:46:21.318Z,74.30
2023-01-17T11:48:56.730Z,69.90
2023-01-17T11:51:33.772Z,67.70
2023-01-17T11:54:39.116Z,63.50
2023-01-17T11:57:08.477Z,62.50
2023-01-17T11:59:37.586Z,59.40
2023-01-17T12:02:45.645Z,57.90
2023-01-17T12:05:34.331Z,55.30
2023-01-17T12:08:18.215Z,56.70
2023-01-17T12:11:26.537Z,56.70
2023-01-17T12:14:26.084Z,55.50
2023-01-17T12:17:30.488Z,57.90
